sensor_id;sensor_type;location;lat;lon;timestamp;P1;durP1;ratioP1;P2;durP2;ratioP2
54835;SDS011;43486;43.574;1.476;2023-03-01T00:01:05;7.18;;;3.75;;
54835;SDS011;43486;43.574;1.476;2023-03-01T00:05:57;5.93;;;3.63;;
54835;SDS011;43486;43.574;1.476;2023-03-01T00:08:23;7.32;;;3.90;;
54835;SDS011;43486;43.574;1.476;2023-03-01T00:10:49;8.98;;;4.03;;
54835;SDS011;43486;43.574;1.476;2023-03-01T00:13:14;8.07;;;3.97;;
54835;SDS011;43486;43.574;1.476;2023-03-01T00:15:40;14.25;;;4.32;;
54835;SDS011;43486;43.574;1.476;2023-03-01T00:18:08;6.63;;;4.20;;
54835;SDS011;43486;43.574;1.476;2023-03-01T00:20:34;6.57;;;3.47;;
54835;SDS011;43486;43.574;1.476;2023-03-01T00:23:00;7.47;;;3.35;;
54835;SDS011;43486;43.574;1.476;2023-03-01T00:25:25;7.97;;;4.20;;
54835;SDS011;43486;43.574;1.476;2023-03-01T00:27:51;5.85;;;3.33;;
54835;SDS011;43486;43.574;1.476;2023-03-01T00:30:16;11.73;;;4.32;;
54835;SDS011;43486;43.574;1.476;2023-03-01T00:32:42;7.60;;;4.53;;
54835;SDS011;43486;43.574;1.476;2023-03-01T00:35:07;7.35;;;3.72;;
54835;SDS011;43486;43.574;1.476;2023-03-01T00:37:33;10.18;;;4.80;;
54835;SDS011;43486;43.574;1.476;2023-03-01T00:39:58;15.27;;;4.25;;
54835;SDS011;43486;43.574;1.476;2023-03-01T00:42:23;7.10;;;3.67;;
54835;SDS011;43486;43.574;1.476;2023-03-01T00:44:49;6.07;;;3.63;;
54835;SDS011;43486;43.574;1.476;2023-03-01T00:47:14;7.22;;;4.00;;
54835;SDS011;43486;43.574;1.476;2023-03-01T00:49:39;9.63;;;4.07;;
54835;SDS011;43486;43.574;1.476;2023-03-01T00:52:05;9.93;;;4.15;;
54835;SDS011;43486;43.574;1.476;2023-03-01T00:54:31;8.73;;;4.40;;
54835;SDS011;43486;43.574;1.476;2023-03-01T00:56:56;8.73;;;4.60;;
54835;SDS011;43486;43.574;1.476;2023-03-01T00:59:21;7.80;;;4.47;;
54835;SDS011;43486;43.574;1.476;2023-03-01T01:01:47;7.95;;;5.10;;
54835;SDS011;43486;43.574;1.476;2023-03-01T01:04:13;10.23;;;4.93;;
54835;SDS011;43486;43.574;1.476;2023-03-01T01:06:39;7.95;;;4.72;;
54835;SDS011;43486;43.574;1.476;2023-03-01T01:09:10;7.18;;;4.65;;
54835;SDS011;43486;43.574;1.476;2023-03-01T01:11:48;11.00;;;3.72;;
54835;SDS011;43486;43.574;1.476;2023-03-01T01:14:15;7.47;;;4.68;;
54835;SDS011;43486;43.574;1.476;2023-03-01T01:16:41;10.13;;;3.67;;
54835;SDS011;43486;43.574;1.476;2023-03-01T01:19:06;7.40;;;4.82;;
54835;SDS011;43486;43.574;1.476;2023-03-01T01:21:32;7.95;;;4.55;;
54835;SDS011;43486;43.574;1.476;2023-03-01T01:23:57;10.90;;;5.40;;
54835;SDS011;43486;43.574;1.476;2023-03-01T01:26:24;7.85;;;4.78;;
54835;SDS011;43486;43.574;1.476;2023-03-01T01:28:51;10.07;;;5.35;;
54835;SDS011;43486;43.574;1.476;2023-03-01T01:31:18;7.82;;;4.60;;
54835;SDS011;43486;43.574;1.476;2023-03-01T01:33:43;8.43;;;5.30;;
54835;SDS011;43486;43.574;1.476;2023-03-01T01:36:09;9.20;;;4.80;;
54835;SDS011;43486;43.574;1.476;2023-03-01T01:38:36;9.60;;;4.03;;
54835;SDS011;43486;43.574;1.476;2023-03-01T01:41:02;7.57;;;3.42;;
54835;SDS011;43486;43.574;1.476;2023-03-01T01:43:29;6.72;;;4.15;;
54835;SDS011;43486;43.574;1.476;2023-03-01T01:46:00;7.55;;;4.15;;
54835;SDS011;43486;43.574;1.476;2023-03-01T01:48:38;10.07;;;5.18;;
54835;SDS011;43486;43.574;1.476;2023-03-01T01:51:07;8.85;;;4.72;;
54835;SDS011;43486;43.574;1.476;2023-03-01T01:53:36;9.45;;;5.45;;
54835;SDS011;43486;43.574;1.476;2023-03-01T01:56:02;7.32;;;4.75;;
54835;SDS011;43486;43.574;1.476;2023-03-01T01:58:28;7.05;;;3.42;;
54835;SDS011;43486;43.574;1.476;2023-03-01T02:00:54;7.22;;;4.55;;
54835;SDS011;43486;43.574;1.476;2023-03-01T02:03:22;6.82;;;4.18;;
54835;SDS011;43486;43.574;1.476;2023-03-01T02:08:19;9.10;;;4.05;;
54835;SDS011;43486;43.574;1.476;2023-03-01T02:10:45;6.53;;;3.80;;
54835;SDS011;43486;43.574;1.476;2023-03-01T02:13:11;7.47;;;3.78;;
54835;SDS011;43486;43.574;1.476;2023-03-01T02:15:37;8.55;;;4.10;;
54835;SDS011;43486;43.574;1.476;2023-03-01T02:18:04;7.35;;;4.40;;
54835;SDS011;43486;43.574;1.476;2023-03-01T02:20:33;8.25;;;4.75;;
54835;SDS011;43486;43.574;1.476;2023-03-01T02:22:59;7.95;;;4.07;;
54835;SDS011;43486;43.574;1.476;2023-03-01T02:25:27;11.23;;;4.15;;
54835;SDS011;43486;43.574;1.476;2023-03-01T02:30:42;8.82;;;4.00;;
54835;SDS011;43486;43.574;1.476;2023-03-01T02:33:27;5.55;;;3.67;;
54835;SDS011;43486;43.574;1.476;2023-03-01T02:35:53;8.20;;;4.13;;
54835;SDS011;43486;43.574;1.476;2023-03-01T02:38:19;7.35;;;4.13;;
54835;SDS011;43486;43.574;1.476;2023-03-01T02:40:45;7.85;;;3.17;;
54835;SDS011;43486;43.574;1.476;2023-03-01T02:43:11;4.75;;;3.25;;
54835;SDS011;43486;43.574;1.476;2023-03-01T02:45:37;8.43;;;4.82;;
54835;SDS011;43486;43.574;1.476;2023-03-01T02:48:02;7.28;;;4.13;;
54835;SDS011;43486;43.574;1.476;2023-03-01T02:55:23;6.32;;;3.70;;
54835;SDS011;43486;43.574;1.476;2023-03-01T02:57:49;7.18;;;3.67;;
54835;SDS011;43486;43.574;1.476;2023-03-01T03:00:21;7.85;;;4.18;;
54835;SDS011;43486;43.574;1.476;2023-03-01T03:02:50;6.43;;;3.55;;
54835;SDS011;43486;43.574;1.476;2023-03-01T03:05:24;5.03;;;3.08;;
54835;SDS011;43486;43.574;1.476;2023-03-01T03:07:51;9.00;;;3.72;;
54835;SDS011;43486;43.574;1.476;2023-03-01T03:10:19;7.18;;;4.22;;
54835;SDS011;43486;43.574;1.476;2023-03-01T03:12:50;7.95;;;4.28;;
54835;SDS011;43486;43.574;1.476;2023-03-01T03:15:17;8.30;;;4.07;;
54835;SDS011;43486;43.574;1.476;2023-03-01T03:17:43;6.07;;;3.55;;
54835;SDS011;43486;43.574;1.476;2023-03-01T03:20:09;8.15;;;3.95;;
54835;SDS011;43486;43.574;1.476;2023-03-01T03:22:38;7.68;;;4.25;;
54835;SDS011;43486;43.574;1.476;2023-03-01T03:25:04;7.75;;;4.43;;
54835;SDS011;43486;43.574;1.476;2023-03-01T03:27:34;6.60;;;3.78;;
54835;SDS011;43486;43.574;1.476;2023-03-01T03:29:59;8.40;;;4.40;;
54835;SDS011;43486;43.574;1.476;2023-03-01T03:32:24;6.40;;;3.88;;
54835;SDS011;43486;43.574;1.476;2023-03-01T03:34:50;7.55;;;3.97;;
54835;SDS011;43486;43.574;1.476;2023-03-01T03:37:15;12.65;;;5.65;;
54835;SDS011;43486;43.574;1.476;2023-03-01T03:39:59;7.43;;;3.95;;
54835;SDS011;43486;43.574;1.476;2023-03-01T03:42:24;6.88;;;3.83;;
54835;SDS011;43486;43.574;1.476;2023-03-01T03:44:49;11.45;;;5.30;;
54835;SDS011;43486;43.574;1.476;2023-03-01T03:47:15;8.38;;;4.13;;
54835;SDS011;43486;43.574;1.476;2023-03-01T03:49:40;10.95;;;3.88;;
54835;SDS011;43486;43.574;1.476;2023-03-01T03:52:06;5.93;;;3.55;;
54835;SDS011;43486;43.574;1.476;2023-03-01T03:54:39;9.52;;;4.35;;
54835;SDS011;43486;43.574;1.476;2023-03-01T03:57:05;8.70;;;4.55;;
54835;SDS011;43486;43.574;1.476;2023-03-01T03:59:31;6.93;;;4.05;;
54835;SDS011;43486;43.574;1.476;2023-03-01T04:01:56;8.27;;;4.35;;
54835;SDS011;43486;43.574;1.476;2023-03-01T04:04:22;9.00;;;4.22;;
54835;SDS011;43486;43.574;1.476;2023-03-01T04:06:47;4.95;;;3.10;;
54835;SDS011;43486;43.574;1.476;2023-03-01T04:09:13;6.70;;;4.10;;
54835;SDS011;43486;43.574;1.476;2023-03-01T04:11:39;8.30;;;3.72;;
54835;SDS011;43486;43.574;1.476;2023-03-01T04:14:04;7.88;;;3.63;;
54835;SDS011;43486;43.574;1.476;2023-03-01T04:16:29;5.75;;;3.40;;
54835;SDS011;43486;43.574;1.476;2023-03-01T04:18:55;10.68;;;4.40;;
54835;SDS011;43486;43.574;1.476;2023-03-01T04:21:21;8.25;;;4.25;;
54835;SDS011;43486;43.574;1.476;2023-03-01T04:23:47;7.20;;;4.13;;
54835;SDS011;43486;43.574;1.476;2023-03-01T04:26:12;6.38;;;4.15;;
54835;SDS011;43486;43.574;1.476;2023-03-01T04:28:38;10.02;;;4.55;;
54835;SDS011;43486;43.574;1.476;2023-03-01T04:31:08;7.00;;;4.38;;
54835;SDS011;43486;43.574;1.476;2023-03-01T04:33:48;7.78;;;4.22;;
54835;SDS011;43486;43.574;1.476;2023-03-01T04:36:16;8.45;;;3.72;;
54835;SDS011;43486;43.574;1.476;2023-03-01T04:38:42;9.32;;;4.00;;
54835;SDS011;43486;43.574;1.476;2023-03-01T04:41:12;8.00;;;3.97;;
54835;SDS011;43486;43.574;1.476;2023-03-01T04:43:38;6.50;;;3.80;;
54835;SDS011;43486;43.574;1.476;2023-03-01T04:46:04;8.15;;;5.10;;
54835;SDS011;43486;43.574;1.476;2023-03-01T04:48:33;8.45;;;4.60;;
54835;SDS011;43486;43.574;1.476;2023-03-01T04:50:59;9.07;;;4.63;;
54835;SDS011;43486;43.574;1.476;2023-03-01T04:53:25;7.78;;;4.43;;
54835;SDS011;43486;43.574;1.476;2023-03-01T04:55:53;7.63;;;4.68;;
54835;SDS011;43486;43.574;1.476;2023-03-01T04:58:19;8.57;;;3.65;;
54835;SDS011;43486;43.574;1.476;2023-03-01T05:00:44;13.48;;;4.47;;
54835;SDS011;43486;43.574;1.476;2023-03-01T05:03:10;7.78;;;4.07;;
54835;SDS011;43486;43.574;1.476;2023-03-01T05:05:36;8.55;;;3.78;;
54835;SDS011;43486;43.574;1.476;2023-03-01T05:08:06;10.60;;;4.65;;
54835;SDS011;43486;43.574;1.476;2023-03-01T05:10:33;9.48;;;5.10;;
54835;SDS011;43486;43.574;1.476;2023-03-01T05:13:00;9.52;;;4.93;;
54835;SDS011;43486;43.574;1.476;2023-03-01T05:15:27;9.63;;;5.25;;
54835;SDS011;43486;43.574;1.476;2023-03-01T05:17:54;8.38;;;5.10;;
54835;SDS011;43486;43.574;1.476;2023-03-01T05:20:20;8.63;;;4.25;;
54835;SDS011;43486;43.574;1.476;2023-03-01T05:22:48;7.32;;;4.38;;
54835;SDS011;43486;43.574;1.476;2023-03-01T05:25:14;9.10;;;5.07;;
54835;SDS011;43486;43.574;1.476;2023-03-01T05:27:39;7.97;;;4.40;;
54835;SDS011;43486;43.574;1.476;2023-03-01T05:30:05;7.95;;;4.38;;
54835;SDS011;43486;43.574;1.476;2023-03-01T05:32:48;8.40;;;4.20;;
54835;SDS011;43486;43.574;1.476;2023-03-01T05:35:15;12.48;;;5.45;;
54835;SDS011;43486;43.574;1.476;2023-03-01T05:37:45;8.48;;;5.07;;
54835;SDS011;43486;43.574;1.476;2023-03-01T05:40:14;8.25;;;4.57;;
54835;SDS011;43486;43.574;1.476;2023-03-01T05:42:44;9.15;;;3.85;;
54835;SDS011;43486;43.574;1.476;2023-03-01T05:45:11;7.20;;;4.43;;
54835;SDS011;43486;43.574;1.476;2023-03-01T05:47:38;6.60;;;4.45;;
54835;SDS011;43486;43.574;1.476;2023-03-01T05:50:19;9.32;;;5.07;;
54835;SDS011;43486;43.574;1.476;2023-03-01T05:52:56;7.53;;;5.45;;
54835;SDS011;43486;43.574;1.476;2023-03-01T05:55:24;7.85;;;4.65;;
54835;SDS011;43486;43.574;1.476;2023-03-01T05:57:50;10.18;;;5.25;;
54835;SDS011;43486;43.574;1.476;2023-03-01T06:00:17;9.10;;;4.55;;
54835;SDS011;43486;43.574;1.476;2023-03-01T06:02:44;11.07;;;4.53;;
54835;SDS011;43486;43.574;1.476;2023-03-01T06:05:10;8.15;;;4.78;;
54835;SDS011;43486;43.574;1.476;2023-03-01T06:07:38;14.75;;;5.07;;
54835;SDS011;43486;43.574;1.476;2023-03-01T06:10:04;7.38;;;4.95;;
54835;SDS011;43486;43.574;1.476;2023-03-01T06:12:31;8.07;;;4.43;;
54835;SDS011;43486;43.574;1.476;2023-03-01T06:14:57;8.05;;;4.50;;
54835;SDS011;43486;43.574;1.476;2023-03-01T06:17:23;13.38;;;6.18;;
54835;SDS011;43486;43.574;1.476;2023-03-01T06:19:48;7.78;;;4.88;;
54835;SDS011;43486;43.574;1.476;2023-03-01T06:22:14;8.27;;;4.70;;
54835;SDS011;43486;43.574;1.476;2023-03-01T06:24:39;11.80;;;5.25;;
54835;SDS011;43486;43.574;1.476;2023-03-01T06:27:04;9.63;;;5.15;;
54835;SDS011;43486;43.574;1.476;2023-03-01T06:29:30;11.35;;;5.75;;
54835;SDS011;43486;43.574;1.476;2023-03-01T06:31:55;9.90;;;5.60;;
54835;SDS011;43486;43.574;1.476;2023-03-01T06:34:21;9.27;;;5.30;;
54835;SDS011;43486;43.574;1.476;2023-03-01T06:36:46;7.18;;;4.38;;
54835;SDS011;43486;43.574;1.476;2023-03-01T06:39:12;9.02;;;5.20;;
54835;SDS011;43486;43.574;1.476;2023-03-01T06:41:37;9.30;;;5.07;;
54835;SDS011;43486;43.574;1.476;2023-03-01T06:44:02;14.32;;;5.18;;
54835;SDS011;43486;43.574;1.476;2023-03-01T06:46:28;10.55;;;5.05;;
54835;SDS011;43486;43.574;1.476;2023-03-01T06:48:54;8.38;;;5.60;;
54835;SDS011;43486;43.574;1.476;2023-03-01T06:51:19;10.80;;;6.18;;
54835;SDS011;43486;43.574;1.476;2023-03-01T06:53:45;8.85;;;4.55;;
54835;SDS011;43486;43.574;1.476;2023-03-01T06:56:11;9.48;;;5.13;;
54835;SDS011;43486;43.574;1.476;2023-03-01T06:58:36;11.68;;;5.97;;
54835;SDS011;43486;43.574;1.476;2023-03-01T07:01:05;10.40;;;5.40;;
54835;SDS011;43486;43.574;1.476;2023-03-01T07:03:33;14.15;;;5.57;;
54835;SDS011;43486;43.574;1.476;2023-03-01T07:05:59;15.07;;;6.13;;
54835;SDS011;43486;43.574;1.476;2023-03-01T07:08:24;8.73;;;4.43;;
54835;SDS011;43486;43.574;1.476;2023-03-01T07:10:56;7.80;;;4.28;;
54835;SDS011;43486;43.574;1.476;2023-03-01T07:13:22;10.02;;;5.07;;
54835;SDS011;43486;43.574;1.476;2023-03-01T07:15:48;9.20;;;6.25;;
54835;SDS011;43486;43.574;1.476;2023-03-01T07:18:13;14.80;;;5.65;;
54835;SDS011;43486;43.574;1.476;2023-03-01T07:20:38;10.05;;;5.32;;
54835;SDS011;43486;43.574;1.476;2023-03-01T07:23:05;8.60;;;4.13;;
54835;SDS011;43486;43.574;1.476;2023-03-01T07:25:31;8.68;;;5.88;;
54835;SDS011;43486;43.574;1.476;2023-03-01T07:27:57;9.57;;;5.07;;
54835;SDS011;43486;43.574;1.476;2023-03-01T07:30:22;11.40;;;4.97;;
54835;SDS011;43486;43.574;1.476;2023-03-01T07:32:50;8.90;;;5.57;;
54835;SDS011;43486;43.574;1.476;2023-03-01T07:35:16;23.10;;;7.40;;
54835;SDS011;43486;43.574;1.476;2023-03-01T07:37:41;10.52;;;6.03;;
54835;SDS011;43486;43.574;1.476;2023-03-01T07:40:07;17.95;;;5.22;;
54835;SDS011;43486;43.574;1.476;2023-03-01T07:42:33;11.70;;;6.32;;
54835;SDS011;43486;43.574;1.476;2023-03-01T07:44:58;11.23;;;5.45;;
54835;SDS011;43486;43.574;1.476;2023-03-01T07:47:24;14.30;;;6.15;;
54835;SDS011;43486;43.574;1.476;2023-03-01T07:49:49;11.95;;;6.57;;
54835;SDS011;43486;43.574;1.476;2023-03-01T07:52:15;20.20;;;6.68;;
54835;SDS011;43486;43.574;1.476;2023-03-01T07:54:42;17.13;;;6.63;;
54835;SDS011;43486;43.574;1.476;2023-03-01T07:57:09;9.25;;;4.60;;
54835;SDS011;43486;43.574;1.476;2023-03-01T07:59:34;15.30;;;5.53;;
54835;SDS011;43486;43.574;1.476;2023-03-01T08:02:00;10.65;;;4.72;;
54835;SDS011;43486;43.574;1.476;2023-03-01T08:04:25;11.63;;;5.55;;
54835;SDS011;43486;43.574;1.476;2023-03-01T08:06:51;9.32;;;5.35;;
54835;SDS011;43486;43.574;1.476;2023-03-01T08:09:17;12.77;;;6.88;;
54835;SDS011;43486;43.574;1.476;2023-03-01T08:11:43;16.48;;;5.15;;
54835;SDS011;43486;43.574;1.476;2023-03-01T08:14:08;15.43;;;5.30;;
54835;SDS011;43486;43.574;1.476;2023-03-01T08:16:35;10.55;;;6.03;;
54835;SDS011;43486;43.574;1.476;2023-03-01T08:19:05;8.77;;;5.70;;
54835;SDS011;43486;43.574;1.476;2023-03-01T08:21:34;10.77;;;5.63;;
54835;SDS011;43486;43.574;1.476;2023-03-01T08:24:00;13.32;;;7.10;;
54835;SDS011;43486;43.574;1.476;2023-03-01T08:26:27;20.45;;;7.20;;
54835;SDS011;43486;43.574;1.476;2023-03-01T08:28:52;11.90;;;6.13;;
54835;SDS011;43486;43.574;1.476;2023-03-01T08:31:32;11.50;;;5.35;;
54835;SDS011;43486;43.574;1.476;2023-03-01T08:34:00;13.50;;;6.03;;
54835;SDS011;43486;43.574;1.476;2023-03-01T08:36:27;11.90;;;5.57;;
54835;SDS011;43486;43.574;1.476;2023-03-01T08:38:54;8.13;;;5.03;;
54835;SDS011;43486;43.574;1.476;2023-03-01T08:41:20;11.88;;;5.55;;
54835;SDS011;43486;43.574;1.476;2023-03-01T08:43:46;17.75;;;5.85;;
54835;SDS011;43486;43.574;1.476;2023-03-01T08:46:11;13.30;;;6.50;;
54835;SDS011;43486;43.574;1.476;2023-03-01T08:48:37;17.55;;;5.82;;
54835;SDS011;43486;43.574;1.476;2023-03-01T08:51:09;14.88;;;6.38;;
54835;SDS011;43486;43.574;1.476;2023-03-01T08:53:36;12.57;;;4.85;;
54835;SDS011;43486;43.574;1.476;2023-03-01T08:56:02;7.80;;;5.10;;
54835;SDS011;43486;43.574;1.476;2023-03-01T08:58:28;14.75;;;5.20;;
54835;SDS011;43486;43.574;1.476;2023-03-01T09:00:53;12.35;;;5.72;;
54835;SDS011;43486;43.574;1.476;2023-03-01T09:03:19;7.50;;;4.85;;
54835;SDS011;43486;43.574;1.476;2023-03-01T09:05:44;11.55;;;4.93;;
54835;SDS011;43486;43.574;1.476;2023-03-01T09:08:11;10.73;;;6.10;;
54835;SDS011;43486;43.574;1.476;2023-03-01T09:10:39;10.55;;;5.32;;
54835;SDS011;43486;43.574;1.476;2023-03-01T09:13:04;12.77;;;6.25;;
54835;SDS011;43486;43.574;1.476;2023-03-01T09:15:30;9.38;;;4.88;;
54835;SDS011;43486;43.574;1.476;2023-03-01T09:17:55;9.57;;;4.03;;
54835;SDS011;43486;43.574;1.476;2023-03-01T09:20:21;11.70;;;4.13;;
54835;SDS011;43486;43.574;1.476;2023-03-01T09:22:46;9.95;;;5.07;;
54835;SDS011;43486;43.574;1.476;2023-03-01T09:25:11;9.10;;;5.22;;
54835;SDS011;43486;43.574;1.476;2023-03-01T09:27:37;11.30;;;5.22;;
54835;SDS011;43486;43.574;1.476;2023-03-01T09:30:03;9.55;;;5.57;;
54835;SDS011;43486;43.574;1.476;2023-03-01T09:32:32;11.98;;;4.30;;
54835;SDS011;43486;43.574;1.476;2023-03-01T09:34:58;8.02;;;5.10;;
54835;SDS011;43486;43.574;1.476;2023-03-01T09:37:26;7.72;;;4.93;;
54835;SDS011;43486;43.574;1.476;2023-03-01T09:39:51;17.83;;;6.03;;
54835;SDS011;43486;43.574;1.476;2023-03-01T09:42:17;6.97;;;4.57;;
54835;SDS011;43486;43.574;1.476;2023-03-01T09:47:09;8.55;;;5.40;;
54835;SDS011;43486;43.574;1.476;2023-03-01T09:49:39;18.35;;;5.40;;
54835;SDS011;43486;43.574;1.476;2023-03-01T09:52:40;14.52;;;7.28;;
54835;SDS011;43486;43.574;1.476;2023-03-01T09:54:59;10.48;;;5.60;;
54835;SDS011;43486;43.574;1.476;2023-03-01T09:57:30;10.77;;;5.65;;
54835;SDS011;43486;43.574;1.476;2023-03-01T10:02:37;17.40;;;4.30;;
54835;SDS011;43486;43.574;1.476;2023-03-01T10:07:58;9.23;;;4.72;;
54835;SDS011;43486;43.574;1.476;2023-03-01T10:13:10;9.82;;;5.07;;
54835;SDS011;43486;43.574;1.476;2023-03-01T10:16:21;13.40;;;4.97;;
54835;SDS011;43486;43.574;1.476;2023-03-01T10:18:53;12.43;;;4.80;;
54835;SDS011;43486;43.574;1.476;2023-03-01T10:21:23;7.80;;;4.20;;
54835;SDS011;43486;43.574;1.476;2023-03-01T10:23:52;9.13;;;4.25;;
54835;SDS011;43486;43.574;1.476;2023-03-01T10:31:43;13.82;;;4.70;;
54835;SDS011;43486;43.574;1.476;2023-03-01T10:34:16;7.07;;;4.28;;
54835;SDS011;43486;43.574;1.476;2023-03-01T10:37:11;7.07;;;4.35;;
54835;SDS011;43486;43.574;1.476;2023-03-01T10:42:29;8.13;;;4.45;;
54835;SDS011;43486;43.574;1.476;2023-03-01T10:44:56;8.68;;;4.55;;
54835;SDS011;43486;43.574;1.476;2023-03-01T10:47:26;7.32;;;4.43;;
54835;SDS011;43486;43.574;1.476;2023-03-01T10:49:53;7.05;;;4.60;;
54835;SDS011;43486;43.574;1.476;2023-03-01T10:52:21;13.80;;;3.90;;
54835;SDS011;43486;43.574;1.476;2023-03-01T10:54:53;11.75;;;3.80;;
54835;SDS011;43486;43.574;1.476;2023-03-01T10:57:41;9.65;;;3.47;;
54835;SDS011;43486;43.574;1.476;2023-03-01T11:02:50;6.60;;;3.85;;
54835;SDS011;43486;43.574;1.476;2023-03-01T11:05:33;6.30;;;3.30;;
54835;SDS011;43486;43.574;1.476;2023-03-01T11:07:59;8.57;;;3.47;;
54835;SDS011;43486;43.574;1.476;2023-03-01T11:13:15;10.38;;;3.92;;
54835;SDS011;43486;43.574;1.476;2023-03-01T11:15:42;7.93;;;3.65;;
54835;SDS011;43486;43.574;1.476;2023-03-01T11:18:21;15.40;;;3.67;;
54835;SDS011;43486;43.574;1.476;2023-03-01T11:20:48;6.07;;;3.33;;
54835;SDS011;43486;43.574;1.476;2023-03-01T11:23:14;10.73;;;3.28;;
54835;SDS011;43486;43.574;1.476;2023-03-01T11:25:44;10.25;;;3.92;;
54835;SDS011;43486;43.574;1.476;2023-03-01T11:28:14;8.40;;;3.53;;
54835;SDS011;43486;43.574;1.476;2023-03-01T11:38:55;17.45;;;8.05;;
54835;SDS011;43486;43.574;1.476;2023-03-01T11:41:25;24.10;;;11.98;;
54835;SDS011;43486;43.574;1.476;2023-03-01T11:43:56;26.98;;;12.25;;
54835;SDS011;43486;43.574;1.476;2023-03-01T12:31:38;11.93;;;5.15;;
54835;SDS011;43486;43.574;1.476;2023-03-01T12:36:52;12.38;;;6.47;;
54835;SDS011;43486;43.574;1.476;2023-03-01T12:50:10;13.70;;;6.30;;
54835;SDS011;43486;43.574;1.476;2023-03-01T12:52:49;11.65;;;4.93;;
54835;SDS011;43486;43.574;1.476;2023-03-01T13:03:40;10.77;;;4.82;;
54835;SDS011;43486;43.574;1.476;2023-03-01T13:06:16;9.82;;;3.92;;
54835;SDS011;43486;43.574;1.476;2023-03-01T13:09:02;7.13;;;4.15;;
54835;SDS011;43486;43.574;1.476;2023-03-01T13:11:33;8.40;;;3.88;;
54835;SDS011;43486;43.574;1.476;2023-03-01T13:16:48;7.68;;;3.85;;
54835;SDS011;43486;43.574;1.476;2023-03-01T13:19:18;10.68;;;4.13;;
54835;SDS011;43486;43.574;1.476;2023-03-01T13:21:44;8.85;;;3.28;;
54835;SDS011;43486;43.574;1.476;2023-03-01T13:27:09;5.28;;;3.17;;
54835;SDS011;43486;43.574;1.476;2023-03-01T13:29:49;7.90;;;3.90;;
54835;SDS011;43486;43.574;1.476;2023-03-01T13:32:23;6.53;;;3.08;;
54835;SDS011;43486;43.574;1.476;2023-03-01T13:35:02;6.82;;;2.97;;
54835;SDS011;43486;43.574;1.476;2023-03-01T13:37:47;7.40;;;3.28;;
54835;SDS011;43486;43.574;1.476;2023-03-01T13:42:44;5.15;;;2.70;;
54835;SDS011;43486;43.574;1.476;2023-03-01T13:45:17;5.32;;;2.75;;
54835;SDS011;43486;43.574;1.476;2023-03-01T13:47:46;4.93;;;2.40;;
54835;SDS011;43486;43.574;1.476;2023-03-01T13:50:24;10.30;;;2.80;;
54835;SDS011;43486;43.574;1.476;2023-03-01T13:55:49;5.47;;;2.53;;
54835;SDS011;43486;43.574;1.476;2023-03-01T14:01:24;5.63;;;3.20;;
54835;SDS011;43486;43.574;1.476;2023-03-01T14:03:49;6.70;;;2.92;;
54835;SDS011;43486;43.574;1.476;2023-03-01T14:06:16;6.03;;;2.45;;
54835;SDS011;43486;43.574;1.476;2023-03-01T14:08:45;6.72;;;2.58;;
54835;SDS011;43486;43.574;1.476;2023-03-01T14:19:30;6.88;;;2.45;;
54835;SDS011;43486;43.574;1.476;2023-03-01T14:21:59;5.22;;;3.13;;
54835;SDS011;43486;43.574;1.476;2023-03-01T14:24:56;6.22;;;2.75;;
54835;SDS011;43486;43.574;1.476;2023-03-01T14:27:28;7.30;;;3.08;;
54835;SDS011;43486;43.574;1.476;2023-03-01T14:29:58;4.50;;;2.28;;
54835;SDS011;43486;43.574;1.476;2023-03-01T14:32:26;7.13;;;3.25;;
54835;SDS011;43486;43.574;1.476;2023-03-01T14:34:52;4.97;;;2.22;;
54835;SDS011;43486;43.574;1.476;2023-03-01T14:39:45;6.25;;;3.22;;
54835;SDS011;43486;43.574;1.476;2023-03-01T14:42:11;4.03;;;2.00;;
54835;SDS011;43486;43.574;1.476;2023-03-01T14:44:37;7.20;;;3.67;;
54835;SDS011;43486;43.574;1.476;2023-03-01T14:47:02;6.30;;;2.83;;
54835;SDS011;43486;43.574;1.476;2023-03-01T14:49:29;9.02;;;2.35;;
54835;SDS011;43486;43.574;1.476;2023-03-01T14:51:59;6.43;;;2.80;;
54835;SDS011;43486;43.574;1.476;2023-03-01T14:54:28;5.63;;;2.42;;
54835;SDS011;43486;43.574;1.476;2023-03-01T14:57:00;5.60;;;2.40;;
54835;SDS011;43486;43.574;1.476;2023-03-01T14:59:26;3.35;;;1.90;;
54835;SDS011;43486;43.574;1.476;2023-03-01T15:01:53;4.82;;;1.95;;
54835;SDS011;43486;43.574;1.476;2023-03-01T15:04:21;7.18;;;2.55;;
54835;SDS011;43486;43.574;1.476;2023-03-01T15:06:49;4.57;;;2.05;;
54835;SDS011;43486;43.574;1.476;2023-03-01T15:09:16;4.65;;;2.45;;
54835;SDS011;43486;43.574;1.476;2023-03-01T15:11:42;4.65;;;2.50;;
54835;SDS011;43486;43.574;1.476;2023-03-01T15:17:19;7.05;;;2.90;;
54835;SDS011;43486;43.574;1.476;2023-03-01T15:19:49;5.03;;;2.63;;
54835;SDS011;43486;43.574;1.476;2023-03-01T15:22:25;12.13;;;2.90;;
54835;SDS011;43486;43.574;1.476;2023-03-01T15:24:51;5.72;;;2.47;;
54835;SDS011;43486;43.574;1.476;2023-03-01T15:27:18;5.05;;;2.40;;
54835;SDS011;43486;43.574;1.476;2023-03-01T15:29:56;4.13;;;1.77;;
54835;SDS011;43486;43.574;1.476;2023-03-01T15:32:34;2.70;;;1.58;;
54835;SDS011;43486;43.574;1.476;2023-03-01T15:35:32;3.60;;;2.13;;
54835;SDS011;43486;43.574;1.476;2023-03-01T15:37:59;3.97;;;2.25;;
54835;SDS011;43486;43.574;1.476;2023-03-01T15:40:28;5.57;;;2.30;;
54835;SDS011;43486;43.574;1.476;2023-03-01T15:42:58;5.80;;;2.53;;
54835;SDS011;43486;43.574;1.476;2023-03-01T15:45:24;6.97;;;3.97;;
54835;SDS011;43486;43.574;1.476;2023-03-01T15:47:53;8.13;;;4.10;;
54835;SDS011;43486;43.574;1.476;2023-03-01T15:50:35;12.18;;;6.07;;
54835;SDS011;43486;43.574;1.476;2023-03-01T15:53:06;7.60;;;4.72;;
54835;SDS011;43486;43.574;1.476;2023-03-01T15:55:33;7.97;;;4.32;;
54835;SDS011;43486;43.574;1.476;2023-03-01T16:00:25;6.82;;;4.72;;
54835;SDS011;43486;43.574;1.476;2023-03-01T16:02:51;10.88;;;4.80;;
54835;SDS011;43486;43.574;1.476;2023-03-01T16:05:18;12.63;;;3.75;;
54835;SDS011;43486;43.574;1.476;2023-03-01T16:07:48;5.05;;;3.08;;
54835;SDS011;43486;43.574;1.476;2023-03-01T16:10:13;5.60;;;3.65;;
54835;SDS011;43486;43.574;1.476;2023-03-01T16:12:39;7.00;;;2.80;;
54835;SDS011;43486;43.574;1.476;2023-03-01T16:15:08;4.28;;;2.30;;
54835;SDS011;43486;43.574;1.476;2023-03-01T16:17:39;5.32;;;2.92;;
54835;SDS011;43486;43.574;1.476;2023-03-01T16:20:04;6.82;;;2.70;;
54835;SDS011;43486;43.574;1.476;2023-03-01T16:22:30;7.03;;;2.13;;
54835;SDS011;43486;43.574;1.476;2023-03-01T16:24:55;6.40;;;2.40;;
54835;SDS011;43486;43.574;1.476;2023-03-01T16:27:21;6.13;;;2.65;;
54835;SDS011;43486;43.574;1.476;2023-03-01T16:29:46;9.70;;;2.28;;
54835;SDS011;43486;43.574;1.476;2023-03-01T16:32:12;8.10;;;2.13;;
54835;SDS011;43486;43.574;1.476;2023-03-01T16:34:37;8.20;;;2.75;;
54835;SDS011;43486;43.574;1.476;2023-03-01T16:37:02;5.90;;;2.53;;
54835;SDS011;43486;43.574;1.476;2023-03-01T16:39:28;4.20;;;2.30;;
54835;SDS011;43486;43.574;1.476;2023-03-01T16:41:53;4.43;;;2.50;;
54835;SDS011;43486;43.574;1.476;2023-03-01T16:44:18;3.22;;;2.17;;
54835;SDS011;43486;43.574;1.476;2023-03-01T16:46:44;3.38;;;1.92;;
54835;SDS011;43486;43.574;1.476;2023-03-01T16:49:10;4.28;;;2.38;;
54835;SDS011;43486;43.574;1.476;2023-03-01T16:51:35;6.15;;;2.40;;
54835;SDS011;43486;43.574;1.476;2023-03-01T16:54:01;3.92;;;2.10;;
54835;SDS011;43486;43.574;1.476;2023-03-01T16:56:27;4.32;;;2.28;;
54835;SDS011;43486;43.574;1.476;2023-03-01T16:58:54;6.30;;;2.05;;
54835;SDS011;43486;43.574;1.476;2023-03-01T17:01:19;4.15;;;2.40;;
54835;SDS011;43486;43.574;1.476;2023-03-01T17:03:49;5.25;;;2.47;;
54835;SDS011;43486;43.574;1.476;2023-03-01T17:06:16;6.68;;;2.58;;
54835;SDS011;43486;43.574;1.476;2023-03-01T17:08:42;4.47;;;2.40;;
54835;SDS011;43486;43.574;1.476;2023-03-01T17:11:18;4.70;;;2.53;;